createdAt,value
2023-04-14T00:01:51.394Z,3.78
2023-04-14T00:04:18.187Z,3.13
2023-04-14T00:06:44.888Z,2.88
2023-04-14T00:09:11.632Z,2.97
2023-04-14T00:11:38.308Z,3.38
2023-04-14T00:14:05.894Z,3.65
2023-04-14T00:16:32.554Z,2.85
2023-04-14T00:18:59.341Z,3.35
2023-04-14T00:21:26.960Z,3.15
2023-04-14T00:23:53.589Z,3.33
2023-04-14T00:26:20.353Z,3.60
2023-04-14T00:28:47.655Z,3.53
2023-04-14T00:31:16.192Z,3.00
2023-04-14T00:33:42.989Z,2.72
2023-04-14T00:36:09.737Z,2.88
2023-04-14T00:38:36.499Z,3.00
2023-04-14T00:41:03.227Z,2.78
2023-04-14T00:43:29.820Z,3.17
2023-04-14T00:45:56.589Z,3.85
2023-04-14T00:48:23.495Z,3.92
2023-04-14T00:50:50.123Z,3.25
2023-04-14T00:53:17.297Z,3.55
2023-04-14T00:55:43.974Z,3.20
2023-04-14T00:58:11.073Z,3.33
2023-04-14T01:00:37.941Z,3.72
2023-04-14T01:03:04.697Z,3.15
2023-04-14T01:05:32.891Z,2.97
2023-04-14T01:07:59.598Z,3.17
2023-04-14T01:10:30.868Z,3.28
2023-04-14T01:13:16.754Z,2.80
2023-04-14T01:16:01.490Z,2.83
2023-04-14T01:18:32.005Z,3.03
2023-04-14T01:21:13.681Z,3.15
2023-04-14T01:24:03.694Z,3.20
2023-04-14T01:26:31.269Z,3.13
2023-04-14T01:29:27.754Z,3.22
2023-04-14T01:32:01.645Z,3.00
2023-04-14T01:34:51.042Z,2.80
2023-04-14T01:37:23.423Z,3.17
2023-04-14T01:39:53.982Z,2.92
2023-04-14T01:42:30.789Z,3.60
2023-04-14T01:45:06.763Z,3.25
2023-04-14T01:47:34.225Z,3.25
2023-04-14T01:50:03.234Z,3.08
2023-04-14T01:52:30.823Z,3.45
2023-04-14T01:54:58.990Z,3.45
2023-04-14T01:57:29.280Z,3.50
2023-04-14T01:59:59.561Z,3.50
2023-04-14T02:02:27.016Z,2.90
2023-04-14T02:04:57.640Z,3.30
2023-04-14T02:07:25.315Z,3.25
2023-04-14T02:09:53.812Z,3.63
2023-04-14T02:12:20.913Z,3.30
2023-04-14T02:14:50.049Z,2.80
2023-04-14T02:17:18.110Z,2.88
2023-04-14T02:19:45.292Z,3.20
2023-04-14T02:22:12.002Z,3.58
2023-04-14T02:24:38.952Z,3.03
2023-04-14T02:27:18.207Z,2.70
2023-04-14T02:29:48.799Z,2.78
2023-04-14T02:32:21.491Z,3.45
2023-04-14T02:34:54.371Z,3.67
2023-04-14T02:37:26.137Z,2.92
2023-04-14T02:40:03.105Z,3.35
2023-04-14T02:42:31.375Z,3.78
2023-04-14T02:45:06.781Z,3.30
2023-04-14T02:47:38.520Z,3.40
2023-04-14T02:50:07.645Z,3.05
2023-04-14T02:52:37.790Z,3.33
2023-04-14T02:55:06.288Z,3.95
2023-04-14T02:57:33.251Z,3.70
2023-04-14T03:00:00.434Z,3.20
2023-04-14T03:02:29.238Z,3.40
2023-04-14T03:05:03.492Z,3.85
2023-04-14T03:07:54.457Z,3.53
2023-04-14T03:10:23.170Z,3.53
2023-04-14T03:12:50.584Z,3.70
2023-04-14T03:15:18.468Z,3.80
2023-04-14T03:17:48.738Z,4.90
2023-04-14T03:20:20.022Z,4.05
2023-04-14T03:22:48.273Z,4.22
2023-04-14T03:25:15.977Z,4.90
2023-04-14T03:27:47.507Z,4.53
2023-04-14T03:30:14.620Z,4.82
2023-04-14T03:32:42.456Z,4.78
2023-04-14T03:35:15.065Z,5.13
2023-04-14T03:37:43.203Z,4.88
2023-04-14T03:40:11.645Z,4.60
2023-04-14T03:42:44.645Z,4.55
2023-04-14T03:45:13.261Z,4.88
2023-04-14T03:47:41.816Z,4.55
2023-04-14T03:50:11.015Z,5.30
2023-04-14T03:52:40.109Z,5.60
2023-04-14T03:55:09.141Z,4.63
2023-04-14T03:57:38.962Z,5.22
2023-04-14T04:00:18.406Z,4.72
2023-04-14T04:02:47.397Z,5.13
2023-04-14T04:05:15.196Z,5.57
2023-04-14T04:07:44.944Z,6.18
2023-04-14T04:10:14.256Z,5.43
2023-04-14T04:12:42.580Z,4.82
2023-04-14T04:15:09.891Z,5.03
2023-04-14T04:17:38.644Z,4.95
2023-04-14T04:20:08.853Z,4.70
2023-04-14T04:22:38.137Z,4.78
2023-04-14T04:25:06.161Z,4.57
2023-04-14T04:27:35.439Z,4.85
2023-04-14T04:30:14.816Z,4.78
2023-04-14T04:32:41.764Z,4.65
2023-04-14T04:35:10.533Z,4.72
2023-04-14T04:37:38.219Z,5.50
2023-04-14T04:40:07.291Z,5.15
2023-04-14T04:42:34.135Z,5.63
2023-04-14T04:45:04.122Z,5.57
2023-04-14T04:47:31.238Z,4.82
2023-04-14T04:49:58.358Z,5.65
2023-04-14T04:52:26.150Z,5.05
2023-04-14T04:54:52.980Z,5.55
2023-04-14T04:57:22.935Z,5.05
2023-04-14T04:59:49.927Z,5.72
2023-04-14T05:02:26.297Z,4.88
2023-04-14T05:04:53.059Z,5.57
2023-04-14T05:07:20.327Z,6.10
2023-04-14T05:09:47.618Z,5.35
2023-04-14T05:12:14.300Z,6.15
2023-04-14T05:14:41.007Z,6.20
2023-04-14T05:17:07.642Z,6.90
2023-04-14T05:19:34.260Z,6.15
2023-04-14T05:22:01.519Z,6.15
2023-04-14T05:24:28.270Z,7.03
2023-04-14T05:27:12.466Z,7.22
2023-04-14T05:29:40.415Z,8.05
2023-04-14T05:32:07.203Z,6.22
2023-04-14T05:34:33.915Z,6.78
2023-04-14T05:37:01.380Z,7.30
2023-04-14T05:39:28.200Z,7.13
2023-04-14T05:41:54.756Z,8.57
2023-04-14T05:44:22.697Z,9.55
2023-04-14T05:46:49.378Z,9.75
2023-04-14T05:49:17.152Z,10.05
2023-04-14T05:51:43.934Z,10.45
2023-04-14T05:54:11.461Z,9.98
2023-04-14T05:56:38.865Z,9.57
2023-04-14T05:59:05.469Z,10.88
2023-04-14T06:01:32.089Z,10.38
2023-04-14T06:03:58.969Z,10.95
2023-04-14T06:06:26.403Z,9.63
2023-04-14T06:08:53.390Z,9.85
2023-04-14T06:11:21.174Z,9.07
2023-04-14T06:13:48.034Z,8.55
2023-04-14T06:16:14.716Z,8.05
2023-04-14T06:18:41.628Z,7.38
2023-04-14T06:21:08.242Z,7.68
2023-04-14T06:23:34.910Z,6.97
2023-04-14T06:26:01.551Z,6.72
2023-04-14T06:28:28.308Z,7.00
2023-04-14T06:30:55.020Z,6.63
2023-04-14T06:33:21.696Z,6.97
2023-04-14T06:35:48.570Z,6.90
2023-04-14T06:38:15.355Z,6.78
2023-04-14T06:40:42.936Z,6.40
2023-04-14T06:43:11.030Z,6.60
2023-04-14T06:45:38.006Z,6.90
2023-04-14T06:48:05.101Z,6.15
2023-04-14T06:50:31.730Z,5.47
2023-04-14T06:52:58.445Z,5.88
2023-04-14T06:55:25.038Z,5.88
2023-04-14T06:57:51.625Z,5.72
2023-04-14T07:00:18.433Z,5.60
2023-04-14T07:02:45.250Z,5.28
2023-04-14T07:05:12.709Z,5.20
2023-04-14T07:07:42.109Z,4.65
2023-04-14T07:10:09.353Z,5.18
2023-04-14T07:12:36.068Z,4.82
2023-04-14T07:15:03.626Z,5.32
2023-04-14T07:17:30.490Z,5.07
2023-04-14T07:19:58.089Z,4.47
2023-04-14T07:22:24.672Z,5.10
2023-04-14T07:24:51.858Z,4.28
2023-04-14T07:27:18.679Z,4.40
2023-04-14T07:29:45.538Z,4.75
2023-04-14T07:32:13.241Z,3.95
2023-04-14T07:34:43.528Z,3.95
2023-04-14T07:37:13.190Z,4.70
2023-04-14T07:39:39.896Z,3.70
2023-04-14T07:42:07.034Z,4.07
2023-04-14T07:44:33.917Z,3.90
2023-04-14T07:47:00.778Z,3.72
2023-04-14T07:49:27.521Z,3.65
2023-04-14T07:51:54.690Z,3.70
2023-04-14T07:54:22.092Z,3.67
2023-04-14T07:56:48.978Z,3.90
2023-04-14T07:59:16.177Z,3.92
2023-04-14T08:01:42.994Z,3.85
2023-04-14T08:04:09.805Z,3.72
2023-04-14T08:06:36.922Z,3.15
2023-04-14T08:09:03.887Z,3.25
2023-04-14T08:11:30.926Z,3.95
2023-04-14T08:13:57.508Z,4.10
2023-04-14T08:16:25.159Z,3.83
2023-04-14T08:18:51.803Z,4.15
2023-04-14T08:21:18.732Z,4.22
2023-04-14T08:23:45.376Z,3.95
2023-04-14T08:26:13.150Z,4.55
2023-04-14T08:28:39.959Z,4.13
2023-04-14T08:31:09.552Z,3.85
2023-04-14T08:33:36.197Z,4.30
2023-04-14T08:36:02.913Z,3.20
2023-04-14T08:38:29.684Z,3.97
2023-04-14T08:40:57.269Z,3.20
2023-04-14T08:43:23.900Z,3.40
2023-04-14T08:45:53.860Z,4.13
2023-04-14T08:48:22.485Z,3.92
2023-04-14T08:51:22.736Z,3.40
2023-04-14T08:53:51.441Z,3.92
2023-04-14T08:56:18.805Z,4.00
2023-04-14T08:58:45.785Z,3.83
2023-04-14T09:01:13.021Z,3.83
2023-04-14T09:03:41.181Z,3.47
2023-04-14T09:06:07.825Z,3.90
2023-04-14T09:08:35.268Z,3.97
2023-04-14T09:11:03.691Z,3.83
2023-04-14T09:13:31.184Z,3.75
2023-04-14T09:16:02.222Z,2.67
2023-04-14T09:18:29.439Z,3.03
2023-04-14T09:21:50.630Z,2.67
2023-04-14T09:23:46.134Z,3.25
2023-04-14T09:26:13.455Z,3.00
2023-04-14T09:28:41.139Z,3.47
2023-04-14T09:31:08.687Z,3.53
2023-04-14T09:33:39.834Z,3.72
2023-04-14T09:36:06.807Z,3.75
2023-04-14T09:38:38.070Z,4.38
2023-04-14T09:41:15.027Z,3.10
2023-04-14T09:43:42.349Z,3.13
2023-04-14T09:46:10.961Z,3.63
2023-04-14T09:48:56.889Z,2.88
2023-04-14T09:51:33.085Z,3.33
2023-04-14T09:54:05.011Z,4.22
2023-04-14T09:56:32.127Z,3.53
2023-04-14T09:59:02.471Z,3.85
2023-04-14T10:01:32.218Z,3.47
2023-04-14T10:04:01.195Z,3.42
2023-04-14T10:06:28.289Z,3.17
2023-04-14T10:08:55.788Z,3.47
2023-04-14T10:11:24.903Z,3.50
2023-04-14T10:13:55.615Z,3.75
2023-04-14T10:16:23.295Z,4.57
2023-04-14T10:18:50.851Z,3.80
2023-04-14T10:21:17.815Z,3.33
2023-04-14T10:23:44.643Z,3.55
2023-04-14T10:26:12.743Z,3.30
2023-04-14T10:28:44.705Z,3.25
2023-04-14T10:31:20.042Z,3.63
2023-04-14T10:33:46.854Z,3.65
2023-04-14T10:36:23.268Z,3.17
2023-04-14T10:38:50.208Z,3.10
2023-04-14T10:41:17.040Z,3.45
2023-04-14T10:43:43.647Z,3.70
2023-04-14T10:46:10.281Z,3.53
2023-04-14T10:48:39.187Z,3.28
2023-04-14T10:51:10.491Z,3.72
2023-04-14T10:56:06.030Z,2.85
2023-04-14T10:58:34.660Z,3.22
2023-04-14T11:01:20.867Z,3.05
2023-04-14T11:03:47.706Z,2.95
2023-04-14T11:06:14.921Z,2.70
2023-04-14T11:08:49.983Z,2.78
2023-04-14T11:11:17.093Z,3.00
2023-04-14T11:13:44.135Z,3.13
2023-04-14T11:16:28.415Z,2.40
2023-04-14T11:18:55.800Z,2.58
2023-04-14T11:21:22.388Z,2.38
2023-04-14T11:23:49.232Z,2.60
2023-04-14T11:26:15.876Z,2.40
2023-04-14T11:28:43.448Z,2.33
2023-04-14T11:31:12.079Z,2.60
2023-04-14T11:33:41.400Z,2.28
2023-04-14T11:36:10.220Z,2.30
2023-04-14T11:41:17.176Z,1.98
2023-04-14T11:43:47.033Z,2.70
2023-04-14T11:46:14.429Z,2.67
2023-04-14T11:48:41.228Z,2.58
2023-04-14T11:51:08.315Z,3.22
2023-04-14T11:53:36.338Z,2.22
2023-04-14T11:56:03.902Z,1.80
2023-04-14T11:58:30.651Z,1.98
2023-04-14T12:00:59.821Z,1.75
2023-04-14T12:03:31.399Z,2.83
2023-04-14T12:06:00.887Z,2.75
2023-04-14T12:08:34.622Z,2.15
2023-04-14T12:11:14.452Z,1.58
2023-04-14T12:13:43.654Z,1.30
2023-04-14T12:16:14.887Z,2.35
2023-04-14T12:18:41.977Z,1.83
2023-04-14T12:21:11.003Z,1.65
2023-04-14T12:23:41.921Z,1.63
2023-04-14T12:26:12.146Z,1.75
2023-04-14T12:28:42.277Z,2.20
2023-04-14T12:31:09.816Z,1.80
2023-04-14T12:33:36.825Z,1.70
2023-04-14T12:36:13.070Z,1.50
2023-04-14T12:38:39.988Z,1.85
2023-04-14T12:41:06.847Z,1.50
2023-04-14T12:43:36.059Z,1.85
2023-04-14T12:46:04.530Z,1.60
2023-04-14T12:48:52.058Z,1.92
2023-04-14T12:51:19.634Z,2.17
2023-04-14T12:53:47.700Z,1.65
2023-04-14T12:56:16.458Z,1.42
2023-04-14T12:58:48.235Z,1.65
2023-04-14T13:01:19.515Z,1.50
2023-04-14T13:06:18.271Z,1.40
2023-04-14T13:08:49.353Z,1.50
2023-04-14T13:11:17.124Z,1.50
2023-04-14T13:13:46.947Z,1.30
2023-04-14T13:16:16.310Z,1.42
2023-04-14T13:18:45.111Z,1.40
2023-04-14T13:21:11.729Z,1.48
2023-04-14T13:23:38.611Z,1.50
2023-04-14T13:26:05.680Z,1.40
2023-04-14T13:28:32.461Z,1.50
2023-04-14T13:30:59.699Z,1.50
2023-04-14T13:33:27.501Z,1.65
2023-04-14T13:35:55.674Z,1.80
2023-04-14T13:38:22.928Z,1.80
2023-04-14T13:40:49.571Z,1.80
2023-04-14T13:43:20.319Z,1.48
2023-04-14T13:45:47.278Z,1.80
2023-04-14T13:48:14.620Z,2.00
2023-04-14T13:50:41.464Z,1.92
2023-04-14T13:53:08.395Z,1.45
2023-04-14T13:55:38.279Z,1.35
2023-04-14T13:58:04.816Z,1.50
2023-04-14T14:00:31.427Z,1.48
2023-04-14T14:02:58.177Z,1.80
2023-04-14T14:05:25.722Z,1.27
2023-04-14T14:07:52.316Z,1.33
2023-04-14T14:10:19.168Z,1.30
2023-04-14T14:12:46.204Z,1.40
2023-04-14T14:15:12.885Z,1.48
2023-04-14T14:17:40.562Z,1.30
2023-04-14T14:20:16.486Z,1.30
2023-04-14T14:22:43.592Z,1.27
2023-04-14T14:25:18.321Z,1.25
2023-04-14T14:27:48.436Z,1.48
2023-04-14T14:30:15.791Z,1.15
2023-04-14T14:32:42.728Z,1.30
2023-04-14T14:35:09.659Z,1.50
2023-04-14T14:37:36.512Z,1.13
2023-04-14T14:40:03.544Z,1.20
2023-04-14T14:42:30.884Z,1.45
2023-04-14T14:44:57.629Z,1.48
2023-04-14T14:47:24.561Z,1.27
2023-04-14T14:49:59.984Z,1.40
2023-04-14T14:52:34.505Z,1.17
2023-04-14T14:55:03.518Z,1.25
2023-04-14T14:57:30.531Z,1.30
2023-04-14T14:59:57.684Z,2.17
2023-04-14T15:02:25.353Z,1.15
2023-04-14T15:04:52.415Z,1.33
2023-04-14T15:07:18.992Z,1.08
2023-04-14T15:09:46.547Z,1.05
2023-04-14T15:12:13.293Z,1.13
2023-04-14T15:14:40.069Z,1.00
2023-04-14T15:17:07.004Z,1.10
2023-04-14T15:19:33.619Z,1.27
2023-04-14T15:22:11.004Z,1.15
2023-04-14T15:24:37.986Z,1.38
2023-04-14T15:27:04.916Z,1.10
2023-04-14T15:29:31.826Z,1.30
2023-04-14T15:31:58.951Z,1.38
2023-04-14T15:34:26.125Z,2.03
2023-04-14T15:36:52.851Z,1.00
2023-04-14T15:39:19.414Z,1.20
2023-04-14T15:41:47.564Z,1.42
2023-04-14T15:44:14.342Z,1.42
2023-04-14T15:46:41.092Z,1.10
2023-04-14T15:49:07.718Z,1.30
2023-04-14T15:51:34.897Z,1.05
2023-04-14T15:54:01.944Z,1.70
2023-04-14T15:56:28.747Z,1.02
2023-04-14T15:58:55.295Z,1.45
2023-04-14T16:01:22.100Z,1.30
2023-04-14T16:03:58.941Z,1.40
2023-04-14T16:06:26.552Z,1.10
2023-04-14T16:08:53.398Z,1.10
2023-04-14T16:11:20.200Z,1.13
2023-04-14T16:13:49.799Z,1.40
2023-04-14T16:16:17.837Z,1.15
2023-04-14T16:18:44.532Z,1.15
2023-04-14T16:21:11.667Z,1.40
2023-04-14T16:23:38.238Z,1.38
2023-04-14T16:26:04.911Z,1.80
2023-04-14T16:28:32.023Z,1.30
2023-04-14T16:30:59.814Z,1.50
2023-04-14T16:33:27.359Z,1.30
2023-04-14T16:35:56.937Z,1.38
2023-04-14T16:38:23.740Z,1.20
2023-04-14T16:40:57.265Z,2.47
2023-04-14T16:43:24.983Z,1.40
2023-04-14T16:45:52.148Z,1.67
2023-04-14T16:48:18.926Z,1.30
2023-04-14T16:50:47.364Z,1.30
2023-04-14T16:53:14.158Z,1.13
2023-04-14T16:55:41.103Z,1.52
2023-04-14T16:58:08.546Z,1.48
2023-04-14T17:00:35.669Z,1.38
2023-04-14T17:03:02.733Z,1.30
2023-04-14T17:05:29.708Z,1.13
2023-04-14T17:07:56.449Z,1.55
2023-04-14T17:10:23.417Z,1.00
2023-04-14T17:12:50.008Z,1.13
2023-04-14T17:15:17.182Z,1.30
2023-04-14T17:17:46.133Z,1.42
2023-04-14T17:20:15.030Z,1.35
2023-04-14T17:22:42.242Z,1.40
2023-04-14T17:25:10.733Z,1.40
2023-04-14T17:27:38.465Z,1.33
2023-04-14T17:30:10.794Z,1.23
2023-04-14T17:32:39.070Z,1.20
2023-04-14T17:35:06.668Z,1.15
2023-04-14T17:37:33.821Z,1.50
2023-04-14T17:40:02.946Z,1.20
2023-04-14T17:42:30.945Z,1.40
2023-04-14T17:44:57.730Z,1.08
2023-04-14T17:47:24.347Z,1.30
2023-04-14T17:49:51.161Z,1.48
2023-04-14T17:52:22.857Z,1.38
2023-04-14T17:54:49.968Z,1.60
2023-04-14T17:57:18.790Z,2.17
2023-04-14T17:59:47.593Z,1.70
2023-04-14T18:02:15.638Z,1.65
2023-04-14T18:04:42.733Z,1.95
2023-04-14T18:07:09.663Z,2.13
2023-04-14T18:09:36.518Z,3.50
2023-04-14T18:12:03.269Z,7.43
2023-04-14T18:14:31.094Z,13.27
2023-04-14T18:16:58.336Z,10.65
2023-04-14T18:19:25.048Z,12.27
2023-04-14T18:21:52.109Z,9.85
2023-04-14T18:26:48.504Z,4.13
2023-04-14T18:29:15.316Z,4.30
2023-04-14T18:31:42.566Z,2.67
2023-04-14T18:34:10.359Z,3.78
2023-04-14T18:36:40.591Z,3.08
2023-04-14T18:39:07.822Z,2.90
2023-04-14T18:41:35.076Z,3.00
2023-04-14T18:44:03.356Z,3.10
2023-04-14T18:46:30.441Z,3.10
2023-04-14T18:48:58.401Z,3.00
2023-04-14T18:51:25.920Z,2.25
2023-04-14T18:53:52.981Z,3.05
2023-04-14T18:56:20.029Z,2.30
2023-04-14T18:58:47.117Z,2.28
2023-04-14T19:01:13.916Z,2.55
2023-04-14T19:03:40.749Z,2.00
2023-04-14T19:06:07.483Z,1.90
2023-04-14T19:08:34.262Z,1.85
2023-04-14T19:11:01.039Z,1.80
2023-04-14T19:13:30.653Z,2.33
2023-04-14T19:16:08.397Z,2.38
2023-04-14T19:18:35.498Z,2.50
2023-04-14T19:21:02.620Z,2.50
2023-04-14T19:23:30.096Z,3.17
2023-04-14T19:25:57.493Z,3.25
2023-04-14T19:28:29.387Z,2.85
2023-04-14T19:30:56.009Z,2.72
2023-04-14T19:33:23.438Z,2.40
2023-04-14T19:35:50.866Z,2.60
2023-04-14T19:38:17.800Z,2.90
2023-04-14T19:40:51.015Z,3.35
2023-04-14T19:43:18.559Z,3.15
2023-04-14T19:45:51.920Z,3.97
2023-04-14T19:48:23.368Z,2.67
2023-04-14T19:50:54.408Z,3.15
2023-04-14T19:53:23.163Z,2.90
2023-04-14T19:55:55.897Z,3.05
2023-04-14T19:58:25.433Z,2.63
2023-04-14T20:00:53.638Z,3.05
2023-04-14T20:03:20.675Z,3.10
2023-04-14T20:05:52.816Z,3.13
2023-04-14T20:08:20.711Z,3.95
2023-04-14T20:10:51.267Z,3.83
2023-04-14T20:13:23.355Z,3.40
2023-04-14T20:15:55.142Z,3.22
2023-04-14T20:18:26.419Z,3.58
2023-04-14T20:20:54.797Z,3.10
2023-04-14T20:23:26.439Z,2.80
2023-04-14T20:25:53.507Z,3.20
2023-04-14T20:31:33.921Z,3.17
2023-04-14T20:34:02.172Z,3.40
2023-04-14T20:36:31.873Z,3.63
2023-04-14T20:38:58.922Z,3.90
2023-04-14T20:41:25.922Z,3.90
2023-04-14T20:43:52.708Z,3.67
2023-04-14T20:46:21.548Z,3.83
2023-04-14T20:48:48.800Z,3.65
2023-04-14T20:51:15.523Z,3.63
2023-04-14T20:53:42.243Z,3.47
2023-04-14T20:56:09.016Z,4.03
2023-04-14T20:58:36.540Z,3.40
2023-04-14T21:01:07.167Z,3.70
2023-04-14T21:03:34.796Z,3.33
2023-04-14T21:06:01.971Z,3.70
2023-04-14T21:08:32.262Z,3.70
2023-04-14T21:11:14.631Z,3.95
2023-04-14T21:15:27.034Z,3.78
2023-04-14T21:16:31.336Z,3.80
2023-04-14T21:19:02.370Z,3.88
2023-04-14T21:21:29.834Z,4.00
2023-04-14T21:23:56.673Z,4.78
2023-04-14T21:26:23.868Z,4.22
2023-04-14T21:28:50.817Z,3.85
2023-04-14T21:31:18.402Z,4.47
2023-04-14T21:33:46.079Z,4.28
2023-04-14T21:36:12.741Z,4.13
2023-04-14T21:38:39.619Z,4.30
2023-04-14T21:41:07.919Z,3.90
2023-04-14T21:43:34.915Z,3.80
2023-04-14T21:46:01.611Z,3.90
2023-04-14T21:48:28.726Z,4.22
2023-04-14T21:50:55.363Z,4.70
2023-04-14T21:53:22.127Z,3.78
2023-04-14T21:56:09.186Z,4.53
2023-04-14T21:58:36.542Z,4.20
2023-04-14T22:01:03.966Z,4.20
2023-04-14T22:03:32.457Z,4.70
2023-04-14T22:05:59.805Z,3.95
2023-04-14T22:08:26.647Z,4.72
2023-04-14T22:10:55.757Z,4.40
2023-04-14T22:13:23.234Z,4.53
2023-04-14T22:15:50.976Z,6.70
2023-04-14T22:18:25.931Z,4.95
2023-04-14T22:20:55.837Z,6.15
2023-04-14T22:23:23.007Z,4.32
2023-04-14T22:25:50.409Z,4.65
2023-04-14T22:28:17.041Z,4.97
2023-04-14T22:30:44.319Z,5.13
2023-04-14T22:33:11.737Z,4.70
2023-04-14T22:35:38.967Z,5.15
2023-04-14T22:38:06.009Z,4.63
2023-04-14T22:40:32.969Z,5.65
2023-04-14T22:42:59.605Z,5.07
2023-04-14T22:45:26.573Z,5.40
2023-04-14T22:47:53.320Z,5.60
2023-04-14T22:50:20.066Z,5.00
2023-04-14T22:52:46.809Z,6.10
2023-04-14T22:55:16.316Z,6.10
2023-04-14T22:57:42.975Z,5.53
2023-04-14T23:00:11.679Z,5.72
2023-04-14T23:02:38.647Z,5.97
2023-04-14T23:05:06.695Z,5.63
2023-04-14T23:07:33.502Z,5.55
2023-04-14T23:10:00.120Z,5.28
2023-04-14T23:12:26.711Z,5.35
2023-04-14T23:14:54.085Z,6.80
2023-04-14T23:17:21.203Z,6.35
2023-04-14T23:19:51.553Z,6.25
2023-04-14T23:24:46.580Z,6.25
2023-04-14T23:27:13.421Z,5.90
2023-04-14T23:29:39.982Z,7.05
2023-04-14T23:32:08.896Z,7.68
2023-04-14T23:34:36.156Z,7.57
2023-04-14T23:37:02.757Z,7.55
2023-04-14T23:39:30.324Z,7.40
2023-04-14T23:41:58.215Z,6.75
2023-04-14T23:44:24.983Z,7.38
2023-04-14T23:46:52.237Z,7.25
2023-04-14T23:49:24.706Z,6.78
2023-04-14T23:52:02.184Z,8.38
2023-04-14T23:54:30.862Z,8.52
2023-04-14T23:56:58.070Z,8.48
2023-04-14T23:59:24.992Z,8.63
